Time;durP1;ratioP1;P1;durP2;ratioP2;P2;SDS_P1;SDS_P2;PMS_P1;PMS_P2;Temp;Humidity;BMP_temperature;BMP_pressure;BME280_temperature;BME280_humidity;BME280_pressure;Samples;Min_cycle;Max_cycle;Signal;HPM_P1;HPM_P2
2022/10/03 00:02:17;;;;;;;;;20.00;17.50;;;;;;;;5086347;27;47128;-76
2022/10/03 00:05:01;;;;;;;;;18.50;18.50;;;;;;;;5043643;28;45521;-76
2022/10/03 00:07:38;;;;;;;;;20.00;19.50;;;;;;;;5053300;28;45332;-76
2022/10/03 00:10:22;;;;;;;;;15.25;15.00;;;;;;;;5048347;28;45265;-76
2022/10/03 00:13:00;;;;;;;;;20.75;17.00;;;;;;;;5052538;28;45397;-76
2022/10/03 00:15:48;;;;;;;;;20.50;18.25;;;;;;;;5057773;28;45224;-76
2022/10/03 00:18:20;;;;;;;;;18.50;17.25;;;;;;;;5054091;28;45268;-76
2022/10/03 00:20:45;;;;;;;;;23.00;21.50;;;;;;;;5053616;28;45435;-76
2022/10/03 00:23:15;;;;;;;;;18.20;16.60;;;;;;;;5070514;28;45728;-76
2022/10/03 00:26:25;;;;;;;;;18.75;18.50;;;;;;;;5055640;28;45466;-76
2022/10/03 00:29:05;;;;;;;;;22.75;22.75;;;;;;;;5054415;28;45580;-76
2022/10/03 00:31:41;;;;;;;;;23.00;21.00;;;;;;;;5055619;28;45410;-76
2022/10/03 00:34:23;;;;;;;;;26.50;23.25;;;;;;;;5051826;28;45502;-76
2022/10/03 00:36:52;;;;;;;;;22.25;20.00;;;;;;;;5071034;28;45422;-76
2022/10/03 00:39:17;;;;;;;;;26.25;23.00;;;;;;;;5052388;28;45450;-76
2022/10/03 00:41:52;;;;;;;;;22.80;19.80;;;;;;;;5050902;28;45347;-77
2022/10/03 00:44:36;;;;;;;;;26.50;23.75;;;;;;;;5054456;28;45329;-76
2022/10/03 00:47:10;;;;;;;;;19.50;19.50;;;;;;;;5056520;28;45401;-76
2022/10/03 00:49:41;;;;;;;;;27.50;23.50;;;;;;;;5056367;28;45346;-76
2022/10/03 00:52:25;;;;;;;;;27.00;22.50;;;;;;;;5058720;28;47168;-76
2022/10/03 00:55:02;;;;;;;;;20.25;17.25;;;;;;;;5090253;27;46049;-76
2022/10/03 00:57:45;;;;;;;;;26.00;22.75;;;;;;;;5057806;28;45231;-76
2022/10/03 01:00:30;;;;;;;;;25.25;22.25;;;;;;;;5056203;28;45324;-76
2022/10/03 01:02:55;;;;;;;;;29.00;26.00;;;;;;;;5058501;28;45515;-76
2022/10/03 01:05:20;;;;;;;;;30.60;25.00;;;;;;;;5049088;28;47066;-74
2022/10/03 01:08:04;;;;;;;;;25.25;23.50;;;;;;;;5043435;28;45415;-74
2022/10/03 01:10:48;;;;;;;;;27.50;25.00;;;;;;;;5050035;28;45516;-76
2022/10/03 01:13:31;;;;;;;;;22.25;21.75;;;;;;;;5046666;28;45422;-76
2022/10/03 01:16:06;;;;;;;;;21.50;21.50;;;;;;;;5054747;28;46161;-76
2022/10/03 01:19:04;;;;;;;;;27.00;24.50;;;;;;;;5053441;28;45430;-76
2022/10/03 01:21:38;;;;;;;;;19.25;17.75;;;;;;;;5022676;28;45442;-74
2022/10/03 01:24:03;;;;;;;;;25.50;19.75;;;;;;;;5053991;28;45559;-76
2022/10/03 01:26:29;;;;;;;;;27.25;23.25;;;;;;;;5062631;28;47353;-77
2022/10/03 01:31:59;;;;;;;;;24.00;21.25;;;;;;;;5055437;28;44685;-76
2022/10/03 01:34:47;;;;;;;;;21.75;18.25;;;;;;;;5056934;28;45909;-77
2022/10/03 01:37:26;;;;;;;;;23.00;20.00;;;;;;;;5053506;28;45539;-76
2022/10/03 01:39:54;;;;;;;;;20.25;20.25;;;;;;;;5050653;28;45513;-76
2022/10/03 01:42:32;;;;;;;;;21.75;21.75;;;;;;;;5058136;28;45315;-76
2022/10/03 01:45:12;;;;;;;;;20.00;19.50;;;;;;;;5084484;27;45250;-76
2022/10/03 01:47:37;;;;;;;;;18.75;18.75;;;;;;;;5052662;28;47067;-76
2022/10/03 01:50:11;;;;;;;;;23.50;19.00;;;;;;;;5068546;28;45283;-76
2022/10/03 01:52:57;;;;;;;;;23.00;20.00;;;;;;;;5057727;28;45318;-74
2022/10/03 01:55:43;;;;;;;;;22.00;18.00;;;;;;;;5055196;28;45472;-76
2022/10/03 01:58:19;;;;;;;;;18.75;17.25;;;;;;;;5053304;28;45442;-76
2022/10/03 02:00:49;;;;;;;;;22.50;18.00;;;;;;;;5054751;28;45446;-76
2022/10/03 02:03:25;;;;;;;;;15.25;12.75;;;;;;;;5049468;28;45252;-76
2022/10/03 02:05:50;;;;;;;;;21.50;18.75;;;;;;;;5055662;28;46316;-74
2022/10/03 02:08:34;;;;;;;;;21.50;20.75;;;;;;;;5058902;28;45402;-74
2022/10/03 02:11:01;;;;;;;;;18.00;17.00;;;;;;;;5051928;28;45398;-75
2022/10/03 02:13:29;;;;;;;;;14.75;12.75;;;;;;;;5059341;28;45308;-74
2022/10/03 02:15:54;;;;;;;;;20.75;20.25;;;;;;;;5049111;28;45711;-74
2022/10/03 02:18:30;;;;;;;;;23.60;20.00;;;;;;;;5070783;28;48423;-76
2022/10/03 02:21:07;;;;;;;;;20.75;19.00;;;;;;;;5052988;28;45427;-74
2022/10/03 02:23:32;;;;;;;;;27.25;21.50;;;;;;;;5053851;28;45213;-74
2022/10/03 02:26:24;;;;;;;;;22.00;18.75;;;;;;;;5057246;28;45224;-74
2022/10/03 02:28:54;;;;;;;;;24.00;22.00;;;;;;;;5054848;28;46276;-76
2022/10/03 02:31:38;;;;;;;;;19.75;18.25;;;;;;;;5047708;28;45496;-76
2022/10/03 02:34:03;;;;;;;;;24.75;20.50;;;;;;;;5051206;28;45477;-76
2022/10/03 02:36:42;;;;;;;;;17.50;17.50;;;;;;;;5054204;28;45172;-76
2022/10/03 02:39:10;;;;;;;;;22.25;20.00;;;;;;;;5049163;28;46499;-76
2022/10/03 02:41:54;;;;;;;;;21.25;20.25;;;;;;;;5054281;28;46372;-77
2022/10/03 02:44:29;;;;;;;;;20.75;18.75;;;;;;;;5051123;28;45396;-76
2022/10/03 02:47:00;;;;;;;;;24.75;21.25;;;;;;;;5053779;28;45278;-74
2022/10/03 02:49:37;;;;;;;;;18.50;18.25;;;;;;;;5052864;28;45218;-76
2022/10/03 02:52:05;;;;;;;;;17.00;16.25;;;;;;;;5054558;28;45348;-77
2022/10/03 02:54:40;;;;;;;;;23.25;19.25;;;;;;;;5055032;28;45297;-77
2022/10/03 02:57:16;;;;;;;;;18.50;16.75;;;;;;;;5088161;27;45836;-74
2022/10/03 02:59:47;;;;;;;;;17.50;15.25;;;;;;;;5056550;28;48181;-76
2022/10/03 03:02:28;;;;;;;;;18.75;17.75;;;;;;;;5055460;28;45509;-76
2022/10/03 03:05:11;;;;;;;;;20.75;19.75;;;;;;;;5050776;28;45431;-77
2022/10/03 03:07:42;;;;;;;;;19.75;19.25;;;;;;;;5054203;28;45341;-76
2022/10/03 03:10:28;;;;;;;;;29.75;28.50;;;;;;;;5057830;28;46028;-77
2022/10/03 03:13:25;;;;;;;;;46.25;39.00;;;;;;;;5053476;28;45476;-76
2022/10/03 03:16:00;;;;;;;;;50.00;41.50;;;;;;;;5050198;28;45441;-76
2022/10/03 03:18:33;;;;;;;;;48.00;40.75;;;;;;;;5061659;28;45336;-76
2022/10/03 03:21:37;;;;;;;;;52.50;40.00;;;;;;;;5059347;28;47371;-76
2022/10/03 03:24:12;;;;;;;;;55.25;43.00;;;;;;;;5003560;28;45499;-74
2022/10/03 03:26:56;;;;;;;;;57.50;47.25;;;;;;;;5001849;28;45468;-74
2022/10/03 03:29:33;;;;;;;;;60.75;48.25;;;;;;;;5041175;28;44861;-74
2022/10/03 03:32:04;;;;;;;;;57.00;47.00;;;;;;;;5060260;28;45814;-74
2022/10/03 03:34:41;;;;;;;;;56.00;45.25;;;;;;;;5059423;28;45387;-74
2022/10/03 03:37:13;;;;;;;;;58.75;47.00;;;;;;;;5073751;28;45478;-74
2022/10/03 03:39:38;;;;;;;;;57.75;45.00;;;;;;;;5048127;28;45269;-74
2022/10/03 03:42:11;;;;;;;;;57.25;46.50;;;;;;;;5055595;28;45325;-74
2022/10/03 03:44:42;;;;;;;;;50.25;42.00;;;;;;;;5050562;28;45321;-74
2022/10/03 03:47:15;;;;;;;;;59.00;44.75;;;;;;;;5056669;28;45420;-74
2022/10/03 03:49:49;;;;;;;;;52.50;41.00;;;;;;;;5053401;28;45241;-74
2022/10/03 03:52:32;;;;;;;;;52.00;41.00;;;;;;;;5093422;27;47039;-74
2022/10/03 03:55:15;;;;;;;;;48.25;38.50;;;;;;;;5060333;28;45357;-74
2022/10/03 03:57:59;;;;;;;;;51.25;38.50;;;;;;;;5061522;28;45612;-74
2022/10/03 04:00:37;;;;;;;;;47.75;37.50;;;;;;;;5055733;28;45332;-75
2022/10/03 04:03:02;;;;;;;;;49.75;40.00;;;;;;;;5058911;28;45368;-74
2022/10/03 04:05:36;;;;;;;;;39.50;32.50;;;;;;;;5057849;28;45541;-74
2022/10/03 04:08:31;;;;;;;;;34.75;32.00;;;;;;;;5060749;28;45235;-74
2022/10/03 04:10:59;;;;;;;;;29.25;26.75;;;;;;;;5051294;28;45807;-74
2022/10/03 04:13:43;;;;;;;;;29.25;26.00;;;;;;;;5049802;28;45323;-74
2022/10/03 04:16:08;;;;;;;;;31.50;26.75;;;;;;;;5048356;28;45226;-74
2022/10/03 04:18:59;;;;;;;;;30.75;22.50;;;;;;;;5052112;28;45414;-74
2022/10/03 04:21:27;;;;;;;;;26.00;22.75;;;;;;;;5052430;28;45293;-77
2022/10/03 04:24:12;;;;;;;;;22.75;20.50;;;;;;;;5057965;28;45468;-74
2022/10/03 04:26:47;;;;;;;;;23.50;19.25;;;;;;;;5055504;28;45276;-76
2022/10/03 04:29:21;;;;;;;;;24.75;18.50;;;;;;;;5056957;28;45374;-77
2022/10/03 04:31:54;;;;;;;;;24.00;18.50;;;;;;;;5058540;28;45347;-77
2022/10/03 04:34:22;;;;;;;;;22.75;21.25;;;;;;;;5055691;28;45393;-77
2022/10/03 04:37:05;;;;;;;;;20.50;18.00;;;;;;;;5053078;28;45233;-76
2022/10/03 04:39:30;;;;;;;;;28.25;22.25;;;;;;;;5059279;28;45532;-76
2022/10/03 04:42:02;;;;;;;;;24.25;21.00;;;;;;;;5051332;28;45392;-76
2022/10/03 04:44:48;;;;;;;;;17.75;16.75;;;;;;;;5044911;28;45456;-76
2022/10/03 04:47:52;;;;;;;;;17.00;15.75;;;;;;;;5052206;28;45319;-76
2022/10/03 04:50:24;;;;;;;;;18.50;15.00;;;;;;;;5015413;28;45568;-76
2022/10/03 04:52:55;;;;;;;;;25.75;21.75;;;;;;;;5014770;28;45452;-77
2022/10/03 04:55:23;;;;;;;;;17.25;15.25;;;;;;;;5038415;28;45357;-76
2022/10/03 04:57:54;;;;;;;;;19.50;17.25;;;;;;;;5058316;28;45169;-76
2022/10/03 05:00:30;;;;;;;;;15.75;14.75;;;;;;;;5052154;28;45316;-76
2022/10/03 05:03:12;;;;;;;;;16.25;14.50;;;;;;;;5054022;28;45312;-76
2022/10/03 05:05:58;;;;;;;;;16.75;15.00;;;;;;;;5056567;28;47773;-76
2022/10/03 05:08:35;;;;;;;;;17.25;13.25;;;;;;;;5050505;28;45411;-77
2022/10/03 05:11:06;;;;;;;;;18.00;16.50;;;;;;;;5051947;28;45618;-77
2022/10/03 05:13:41;;;;;;;;;19.25;16.00;;;;;;;;5048968;28;45325;-77
2022/10/03 05:16:14;;;;;;;;;19.50;15.75;;;;;;;;5055131;28;45383;-75
2022/10/03 05:19:12;;;;;;;;;18.00;16.00;;;;;;;;5056119;28;45246;-76
2022/10/03 05:21:45;;;;;;;;;22.00;15.25;;;;;;;;5043326;28;45360;-77
2022/10/03 05:24:30;;;;;;;;;18.75;16.00;;;;;;;;5043089;28;45170;-76
2022/10/03 05:27:15;;;;;;;;;20.50;17.75;;;;;;;;5051685;27;46128;-77
2022/10/03 05:29:42;;;;;;;;;21.00;18.25;;;;;;;;5051981;28;45252;-76
2022/10/03 05:32:11;;;;;;;;;23.00;18.00;;;;;;;;5056356;28;45282;-76
2022/10/03 05:34:45;;;;;;;;;17.75;15.00;;;;;;;;5056292;28;45341;-74
2022/10/03 05:37:13;;;;;;;;;18.50;16.25;;;;;;;;5053076;28;45639;-74
2022/10/03 05:39:44;;;;;;;;;22.75;18.50;;;;;;;;5054748;28;45276;-76
2022/10/03 05:42:28;;;;;;;;;18.25;16.00;;;;;;;;5087768;27;45413;-76
2022/10/03 05:45:00;;;;;;;;;17.50;17.50;;;;;;;;5049685;28;45712;-77
2022/10/03 05:47:44;;;;;;;;;19.25;18.25;;;;;;;;5058580;28;45268;-77
2022/10/03 05:50:12;;;;;;;;;18.25;14.00;;;;;;;;5059983;28;45314;-76
2022/10/03 05:52:38;;;;;;;;;20.75;17.00;;;;;;;;5056192;28;45327;-76
2022/10/03 05:55:03;;;;;;;;;21.00;17.75;;;;;;;;5058426;28;45418;-76
2022/10/03 05:57:42;;;;;;;;;20.00;14.00;;;;;;;;5059007;28;45509;-75
2022/10/03 06:00:16;;;;;;;;;17.00;17.00;;;;;;;;5058584;28;45341;-75
2022/10/03 06:02:50;;;;;;;;;25.00;18.50;;;;;;;;5058489;28;45276;-74
2022/10/03 06:05:34;;;;;;;;;18.00;16.75;;;;;;;;5057060;28;46267;-76
2022/10/03 06:08:18;;;;;;;;;19.75;18.50;;;;;;;;5059089;28;45458;-75
2022/10/03 06:11:04;;;;;;;;;23.00;20.25;;;;;;;;5070053;28;45484;-74
2022/10/03 06:13:29;;;;;;;;;24.25;16.50;;;;;;;;5023411;28;45535;-74
2022/10/03 06:15:57;;;;;;;;;24.00;18.25;;;;;;;;5057051;28;45255;-74
2022/10/03 06:18:37;;;;;;;;;19.25;18.25;;;;;;;;5057751;28;45303;-74
2022/10/03 06:21:12;;;;;;;;;20.75;19.00;;;;;;;;5057419;28;45386;-74
2022/10/03 06:23:40;;;;;;;;;22.50;20.00;;;;;;;;5060571;28;45473;-74
2022/10/03 06:26:05;;;;;;;;;22.75;18.75;;;;;;;;5056634;28;45965;-74
2022/10/03 06:28:50;;;;;;;;;21.25;19.75;;;;;;;;5056810;28;46720;-74
2022/10/03 06:31:50;;;;;;;;;18.50;18.50;;;;;;;;5056885;28;45407;-74
2022/10/03 06:34:21;;;;;;;;;26.25;20.00;;;;;;;;5057152;28;45734;-74
2022/10/03 06:36:49;;;;;;;;;23.25;17.75;;;;;;;;5055490;28;45150;-73
2022/10/03 06:39:29;;;;;;;;;31.75;26.00;;;;;;;;5057831;28;46014;-74
2022/10/03 06:42:15;;;;;;;;;22.50;18.00;;;;;;;;5057385;28;45392;-74
2022/10/03 06:45:01;;;;;;;;;24.75;23.00;;;;;;;;5058065;28;45480;-74
2022/10/03 06:47:35;;;;;;;;;22.00;20.75;;;;;;;;5057997;28;45382;-74
2022/10/03 06:50:15;;;;;;;;;20.00;17.50;;;;;;;;5057516;28;46473;-74
2022/10/03 06:52:52;;;;;;;;;30.25;20.50;;;;;;;;5056990;28;45398;-74
2022/10/03 06:55:26;;;;;;;;;19.00;17.50;;;;;;;;5056534;28;45495;-74
2022/10/03 06:57:55;;;;;;;;;21.50;17.00;;;;;;;;5056604;28;45614;-73
2022/10/03 07:00:21;;;;;;;;;20.25;18.00;;;;;;;;5056854;28;45320;-74
2022/10/03 07:02:52;;;;;;;;;22.25;19.00;;;;;;;;5055779;28;45473;-74
2022/10/03 07:05:36;;;;;;;;;18.75;16.25;;;;;;;;5057557;28;45600;-75
2022/10/03 07:08:19;;;;;;;;;21.25;16.25;;;;;;;;5058059;28;45384;-74
2022/10/03 07:10:48;;;;;;;;;26.00;18.25;;;;;;;;5057153;28;45718;-74
2022/10/03 07:13:22;;;;;;;;;20.00;14.50;;;;;;;;5057824;28;45396;-74
2022/10/03 07:16:07;;;;;;;;;21.25;17.75;;;;;;;;5054505;28;45300;-74
2022/10/03 07:18:36;;;;;;;;;17.25;16.00;;;;;;;;5070183;28;45498;-74
2022/10/03 07:21:20;;;;;;;;;19.50;17.25;;;;;;;;5057288;28;46168;-74
2022/10/03 07:24:04;;;;;;;;;23.25;19.75;;;;;;;;5056886;28;45342;-75
2022/10/03 07:26:48;;;;;;;;;18.50;18.00;;;;;;;;5057273;28;45340;-74
2022/10/03 07:29:16;;;;;;;;;18.25;17.25;;;;;;;;5056013;28;45308;-74
2022/10/03 07:31:41;;;;;;;;;13.75;13.75;;;;;;;;5055093;28;45469;-75
2022/10/03 07:34:17;;;;;;;;;20.75;17.00;;;;;;;;5054389;28;45498;-75
2022/10/03 07:39:26;;;;;;;;;13.50;13.50;;;;;;;;5047988;28;45300;-74
2022/10/03 07:42:10;;;;;;;;;15.75;14.25;;;;;;;;5055757;28;45355;-74
2022/10/03 07:44:53;;;;;;;;;17.75;13.25;;;;;;;;5053070;28;44675;-74
2022/10/03 07:47:47;;;;;;;;;15.50;14.25;;;;;;;;5055841;28;45444;-74
2022/10/03 07:50:31;;;;;;;;;17.00;13.25;;;;;;;;5054729;28;45270;-74
2022/10/03 07:53:07;;;;;;;;;16.25;12.75;;;;;;;;5060922;28;45441;-75
2022/10/03 07:56:01;;;;;;;;;21.25;12.75;;;;;;;;5059670;28;45325;-74
2022/10/03 07:58:44;;;;;;;;;16.25;12.25;;;;;;;;5051419;28;45373;-74
2022/10/03 08:01:10;;;;;;;;;12.50;11.75;;;;;;;;5050669;28;45267;-74
2022/10/03 08:03:55;;;;;;;;;13.75;13.00;;;;;;;;5050804;28;45373;-75
2022/10/03 08:06:23;;;;;;;;;16.00;13.00;;;;;;;;5054544;28;45333;-74
2022/10/03 08:09:05;;;;;;;;;15.50;13.00;;;;;;;;5056257;28;45325;-74
2022/10/03 08:11:56;;;;;;;;;16.75;16.75;;;;;;;;5055492;28;45418;-74
2022/10/03 08:14:30;;;;;;;;;12.75;12.75;;;;;;;;5042376;28;45510;-73
2022/10/03 08:17:11;;;;;;;;;14.75;12.50;;;;;;;;5055111;28;45583;-74
2022/10/03 08:19:54;;;;;;;;;18.25;15.25;;;;;;;;5061151;28;45231;-75
2022/10/03 08:22:37;;;;;;;;;16.50;12.50;;;;;;;;5059826;28;45268;-74
2022/10/03 08:25:09;;;;;;;;;17.75;14.25;;;;;;;;5057975;28;45547;-74
2022/10/03 08:27:58;;;;;;;;;19.25;18.25;;;;;;;;5053974;28;45398;-74
2022/10/03 08:30:28;;;;;;;;;15.75;14.50;;;;;;;;5028997;28;45594;-74
2022/10/03 08:32:57;;;;;;;;;16.50;16.00;;;;;;;;5058123;28;45485;-74
2022/10/03 08:35:22;;;;;;;;;22.00;19.00;;;;;;;;5086546;27;45466;-74
2022/10/03 08:38:00;;;;;;;;;19.75;13.75;;;;;;;;5058505;28;45548;-74
2022/10/03 08:40:25;;;;;;;;;20.75;17.50;;;;;;;;5052663;28;45432;-74
2022/10/03 08:43:09;;;;;;;;;18.25;15.00;;;;;;;;5057052;28;45485;-74
2022/10/03 08:45:37;;;;;;;;;19.50;18.25;;;;;;;;5054029;28;45320;-74
2022/10/03 08:48:21;;;;;;;;;21.25;19.50;;;;;;;;5057885;28;45591;-73
2022/10/03 08:50:46;;;;;;;;;14.75;14.75;;;;;;;;5089143;27;45242;-74
2022/10/03 08:53:37;;;;;;;;;18.25;16.50;;;;;;;;5059812;28;45418;-74
2022/10/03 08:56:08;;;;;;;;;17.25;14.75;;;;;;;;5050712;28;45246;-74
2022/10/03 08:59:02;;;;;;;;;18.50;16.00;;;;;;;;5042436;28;45253;-73
2022/10/03 09:01:33;;;;;;;;;17.75;16.25;;;;;;;;5049865;28;45381;-74
2022/10/03 09:04:10;;;;;;;;;23.50;19.50;;;;;;;;5046375;28;45435;-74
2022/10/03 09:06:41;;;;;;;;;23.25;19.25;;;;;;;;5051976;28;45374;-73
2022/10/03 09:09:09;;;;;;;;;21.75;19.75;;;;;;;;5047692;28;45323;-74
2022/10/03 09:11:36;;;;;;;;;22.00;19.25;;;;;;;;5052389;28;45402;-73
2022/10/03 09:14:08;;;;;;;;;16.75;16.75;;;;;;;;5050571;28;45314;-73
2022/10/03 09:16:53;;;;;;;;;21.25;19.25;;;;;;;;5066693;28;47142;-73
2022/10/03 09:19:25;;;;;;;;;20.00;17.75;;;;;;;;5048552;28;45226;-73
2022/10/03 09:22:26;;;;;;;;;24.00;22.75;;;;;;;;5058355;28;46492;-73
2022/10/03 09:25:02;;;;;;;;;29.50;23.75;;;;;;;;4994957;28;45243;-73
2022/10/03 09:27:29;;;;;;;;;25.50;22.00;;;;;;;;5045456;28;45546;-74
2022/10/03 09:30:00;;;;;;;;;24.25;23.00;;;;;;;;5056385;28;45323;-73
2022/10/03 09:32:44;;;;;;;;;22.50;18.75;;;;;;;;5056682;28;45466;-73
2022/10/03 09:35:09;;;;;;;;;19.25;19.00;;;;;;;;5048098;28;45312;-73
2022/10/03 09:37:38;;;;;;;;;21.75;18.50;;;;;;;;5057291;28;45646;-73
2022/10/03 09:40:22;;;;;;;;;18.75;17.75;;;;;;;;5063352;28;45308;-73
2022/10/03 09:43:06;;;;;;;;;20.00;19.25;;;;;;;;5048708;28;45776;-74
2022/10/03 09:45:31;;;;;;;;;19.00;18.00;;;;;;;;5049690;28;45587;-73
2022/10/03 09:47:59;;;;;;;;;24.75;24.25;;;;;;;;5051757;28;46314;-75
2022/10/03 09:50:30;;;;;;;;;46.75;39.75;;;;;;;;5051292;28;44782;-76
2022/10/03 09:53:14;;;;;;;;;26.00;21.75;;;;;;;;5053258;28;45450;-76
2022/10/03 09:55:39;;;;;;;;;72.75;59.50;;;;;;;;5054862;28;45365;-75
2022/10/03 09:58:14;;;;;;;;;30.50;27.50;;;;;;;;5053772;28;45584;-76
2022/10/03 10:00:58;;;;;;;;;17.25;14.75;;;;;;;;5070760;28;45210;-75
2022/10/03 10:03:42;;;;;;;;;48.00;38.25;;;;;;;;5047335;28;45284;-76
2022/10/03 10:06:39;;;;;;;;;28.75;28.25;;;;;;;;5052844;28;45438;-74
2022/10/03 10:09:10;;;;;;;;;21.25;19.00;;;;;;;;5045626;28;46032;-75
2022/10/03 10:11:44;;;;;;;;;22.00;18.75;;;;;;;;5052490;28;45499;-75
2022/10/03 10:14:21;;;;;;;;;26.00;25.50;;;;;;;;5056353;28;45317;-75
2022/10/03 10:16:46;;;;;;;;;37.25;32.50;;;;;;;;5057441;28;46010;-74
2022/10/03 10:19:28;;;;;;;;;26.25;22.75;;;;;;;;5059283;28;45421;-74
2022/10/03 10:21:56;;;;;;;;;29.75;25.25;;;;;;;;5057187;28;45292;-74
2022/10/03 10:24:21;;;;;;;;;25.25;23.25;;;;;;;;5056443;28;45300;-73
2022/10/03 10:27:01;;;;;;;;;21.60;20.80;;;;;;;;5051135;28;45325;-74
2022/10/03 10:29:30;;;;;;;;;29.75;22.25;;;;;;;;5053254;28;45437;-74
2022/10/03 10:32:13;;;;;;;;;23.00;20.75;;;;;;;;5050933;28;45336;-74
2022/10/03 10:34:57;;;;;;;;;23.75;22.75;;;;;;;;5050548;28;45215;-75
2022/10/03 10:37:41;;;;;;;;;26.25;23.00;;;;;;;;5052101;28;45413;-75
2022/10/03 10:40:11;;;;;;;;;24.00;21.50;;;;;;;;5042738;28;47094;-75
2022/10/03 10:43:02;;;;;;;;;24.33;23.00;;;;;;;;5056707;28;45340;-75
2022/10/03 10:45:38;;;;;;;;;32.00;29.50;;;;;;;;5056696;28;45391;-74
2022/10/03 10:48:23;;;;;;;;;24.75;22.25;;;;;;;;5057590;28;46368;-76
2022/10/03 10:50:49;;;;;;;;;21.67;21.00;;;;;;;;5056107;28;45849;-75
2022/10/03 10:53:36;;;;;;;;;25.33;24.00;;;;;;;;5056298;28;45469;-75
2022/10/03 10:56:03;;;;;;;;;28.00;25.25;;;;;;;;5056513;28;45339;-76
2022/10/03 10:58:34;;;;;;;;;30.25;26.50;;;;;;;;5053759;28;45458;-76
2022/10/03 11:01:06;;;;;;;;;24.67;21.33;;;;;;;;5047670;28;46402;-76
2022/10/03 11:03:37;;;;;;;;;26.75;24.25;;;;;;;;5051210;28;45387;-75
2022/10/03 11:06:05;;;;;;;;;24.67;23.67;;;;;;;;5057386;28;45556;-75
2022/10/03 11:08:48;;;;;;;;;21.33;21.33;;;;;;;;5058025;28;45590;-75
2022/10/03 11:11:26;;;;;;;;;29.33;25.00;;;;;;;;5057294;28;45173;-76
2022/10/03 11:13:51;;;;;;;;;26.67;23.00;;;;;;;;5073160;28;45369;-75
2022/10/03 11:16:39;;;;;;;;;25.67;24.33;;;;;;;;5057194;28;45300;-75
2022/10/03 11:19:25;;;;;;;;;23.67;22.67;;;;;;;;5056064;28;45581;-75
2022/10/03 11:22:09;;;;;;;;;27.00;20.67;;;;;;;;5056970;28;45345;-75
2022/10/03 11:24:37;;;;;;;;;26.00;22.33;;;;;;;;5058367;28;45332;-74
2022/10/03 11:27:16;;;;;;;;;24.00;21.00;;;;;;;;5060553;28;45348;-74
2022/10/03 11:30:01;;;;;;;;;26.67;20.67;;;;;;;;5060960;28;45485;-74
2022/10/03 11:32:27;;;;;;;;;21.00;19.67;;;;;;;;5057965;28;45869;-74
2022/10/03 11:34:56;;;;;;;;;25.33;23.67;;;;;;;;5060699;28;45186;-74
2022/10/03 11:37:39;;;;;;;;;26.33;21.67;;;;;;;;5061400;28;45249;-74
2022/10/03 11:40:16;;;;;;;;;25.00;22.67;;;;;;;;5058811;28;45498;-75
2022/10/03 11:42:44;;;;;;;;;25.33;23.67;;;;;;;;5073162;28;47292;-75
2022/10/03 11:45:24;;;;;;;;;25.00;22.33;;;;;;;;5046987;28;45297;-74
2022/10/03 11:47:50;;;;;;;;;24.33;22.33;;;;;;;;5053403;28;45308;-75
2022/10/03 11:50:15;;;;;;;;;28.33;23.00;;;;;;;;5051319;28;45420;-76
2022/10/03 11:52:49;;;;;;;;;28.67;25.67;;;;;;;;5058713;28;46837;-74
2022/10/03 11:55:23;;;;;;;;;24.33;22.33;;;;;;;;5053176;28;45311;-74
2022/10/03 11:58:07;;;;;;;;;21.33;18.33;;;;;;;;5052938;28;45424;-75
2022/10/03 12:00:35;;;;;;;;;27.33;26.33;;;;;;;;5071254;28;46105;-75
2022/10/03 12:03:14;;;;;;;;;27.67;23.67;;;;;;;;5055825;28;45545;-75
2022/10/03 12:05:45;;;;;;;;;27.67;23.33;;;;;;;;5054316;28;45290;-75
2022/10/03 12:11:00;;;;;;;;;24.00;22.67;;;;;;;;5049769;28;45221;-75
2022/10/03 12:13:32;;;;;;;;;24.67;23.00;;;;;;;;5072933;28;47357;-75
2022/10/03 12:15:59;;;;;;;;;22.00;20.00;;;;;;;;5056600;28;45366;-75
2022/10/03 12:18:47;;;;;;;;;20.00;20.00;;;;;;;;5056077;28;45740;-75
2022/10/03 12:21:15;;;;;;;;;23.33;20.00;;;;;;;;5057210;27;45693;-75
2022/10/03 12:23:41;;;;;;;;;26.33;25.33;;;;;;;;5060828;28;46538;-75
2022/10/03 12:26:12;;;;;;;;;23.25;22.25;;;;;;;;5058060;28;45470;-75
2022/10/03 12:28:39;;;;;;;;;26.67;23.33;;;;;;;;5054847;28;45394;-75
2022/10/03 12:31:23;;;;;;;;;23.67;21.67;;;;;;;;5053266;28;45346;-76
2022/10/03 12:34:04;;;;;;;;;21.67;19.67;;;;;;;;5051631;28;45088;-75
2022/10/03 12:36:39;;;;;;;;;21.00;18.67;;;;;;;;5057812;28;45418;-75
2022/10/03 12:39:19;;;;;;;;;22.67;19.67;;;;;;;;5060449;28;45299;-75
2022/10/03 12:41:44;;;;;;;;;24.00;20.33;;;;;;;;5056886;28;45457;-75
2022/10/03 12:44:15;;;;;;;;;20.00;17.67;;;;;;;;5059755;28;46075;-75
2022/10/03 12:46:40;;;;;;;;;20.00;18.67;;;;;;;;5059761;28;44749;-75
2022/10/03 12:49:24;;;;;;;;;18.33;17.00;;;;;;;;5060492;28;45283;-75
2022/10/03 12:51:58;;;;;;;;;21.00;19.00;;;;;;;;5059434;28;45418;-75
2022/10/03 12:54:46;;;;;;;;;14.67;14.67;;;;;;;;5057413;28;45469;-75
2022/10/03 12:57:15;;;;;;;;;24.67;19.33;;;;;;;;5074127;28;45445;-76
2022/10/03 12:59:46;;;;;;;;;20.33;19.00;;;;;;;;5058789;28;45902;-75
2022/10/03 13:02:23;;;;;;;;;27.33;26.00;;;;;;;;5059841;28;45474;-76
2022/10/03 13:05:07;;;;;;;;;22.00;20.00;;;;;;;;5049554;28;45419;-75
2022/10/03 13:07:38;;;;;;;;;20.00;15.00;;;;;;;;5058875;28;45277;-75
2022/10/03 13:10:03;;;;;;;;;19.33;17.33;;;;;;;;5058687;28;45261;-75
2022/10/03 13:12:49;;;;;;;;;15.67;15.67;;;;;;;;5057781;28;45261;-75
2022/10/03 13:15:33;;;;;;;;;27.33;19.67;;;;;;;;5058398;28;45466;-75
2022/10/03 13:18:13;;;;;;;;;39.00;28.33;;;;;;;;5057060;28;45177;-74
2022/10/03 13:20:41;;;;;;;;;18.00;17.00;;;;;;;;5054762;28;45548;-75
2022/10/03 13:23:12;;;;;;;;;19.00;16.00;;;;;;;;5059310;28;45347;-76
2022/10/03 13:25:45;;;;;;;;;19.33;16.33;;;;;;;;5056118;28;45375;-76
2022/10/03 13:28:17;;;;;;;;;17.67;16.33;;;;;;;;5053638;28;45460;-76
2022/10/03 13:30:55;;;;;;;;;16.33;14.67;;;;;;;;5053062;28;45160;-76
2022/10/03 13:33:22;;;;;;;;;16.33;15.67;;;;;;;;5050792;28;45545;-76
2022/10/03 13:35:58;;;;;;;;;17.00;17.00;;;;;;;;5057381;28;46460;-76
2022/10/03 13:38:26;;;;;;;;;18.00;17.33;;;;;;;;5043803;28;45412;-76
2022/10/03 13:40:54;;;;;;;;;20.33;19.33;;;;;;;;5048364;28;45343;-76
2022/10/03 13:43:24;;;;;;;;;20.00;19.33;;;;;;;;5053083;28;45158;-76
2022/10/03 13:45:50;;;;;;;;;18.00;17.33;;;;;;;;5050118;28;46669;-76
2022/10/03 13:48:25;;;;;;;;;19.33;18.67;;;;;;;;5044333;28;45316;-76
2022/10/03 13:50:55;;;;;;;;;18.00;16.00;;;;;;;;5049671;28;45344;-71
2022/10/03 13:53:34;;;;;;;;;19.67;16.33;;;;;;;;5058665;28;45622;-74
2022/10/03 13:56:06;;;;;;;;;17.00;15.00;;;;;;;;5067761;28;47294;-74
2022/10/03 13:58:34;;;;;;;;;21.67;18.67;;;;;;;;5058921;28;45237;-74
2022/10/03 14:01:04;;;;;;;;;21.67;15.00;;;;;;;;5073961;28;45466;-75
2022/10/03 14:03:41;;;;;;;;;18.33;14.67;;;;;;;;5058845;28;45196;-75
2022/10/03 14:06:23;;;;;;;;;19.67;16.00;;;;;;;;5056539;28;47309;-74
2022/10/03 14:09:00;;;;;;;;;18.00;18.00;;;;;;;;5059314;28;45163;-75
2022/10/03 14:11:45;;;;;;;;;24.00;21.33;;;;;;;;5056879;28;45571;-74
2022/10/03 14:14:22;;;;;;;;;20.33;19.33;;;;;;;;5057439;28;45245;-74
2022/10/03 14:16:51;;;;;;;;;18.33;16.67;;;;;;;;5058200;28;46268;-74
2022/10/03 14:19:26;;;;;;;;;15.67;15.67;;;;;;;;5054981;28;45332;-74
2022/10/03 14:22:00;;;;;;;;;22.67;20.00;;;;;;;;5054413;28;45303;-75
2022/10/03 14:24:37;;;;;;;;;19.33;16.33;;;;;;;;5052641;28;45335;-74
2022/10/03 14:27:02;;;;;;;;;20.67;17.00;;;;;;;;5057827;28;45407;-74
2022/10/03 14:29:27;;;;;;;;;14.67;12.00;;;;;;;;5056229;28;45319;-75
2022/10/03 14:32:13;;;;;;;;;15.67;15.00;;;;;;;;5052606;28;45448;-74
2022/10/03 14:34:38;;;;;;;;;15.00;13.67;;;;;;;;5051171;27;45382;-75
2022/10/03 14:37:06;;;;;;;;;15.33;14.67;;;;;;;;5057667;28;45491;-74
2022/10/03 14:39:53;;;;;;;;;15.67;15.00;;;;;;;;5057859;28;45428;-74
2022/10/03 14:42:30;;;;;;;;;13.67;13.67;;;;;;;;5057890;28;45666;-75
2022/10/03 14:45:00;;;;;;;;;17.00;15.00;;;;;;;;5058175;28;45410;-75
2022/10/03 14:47:31;;;;;;;;;12.67;9.33;;;;;;;;5056619;28;46309;-73
2022/10/03 14:49:58;;;;;;;;;12.33;12.33;;;;;;;;5054939;28;45410;-73
2022/10/03 14:53:01;;;;;;;;;14.00;14.00;;;;;;;;5052428;28;45273;-73
2022/10/03 14:55:30;;;;;;;;;15.00;14.33;;;;;;;;5030816;28;45399;-74
2022/10/03 14:58:05;;;;;;;;;16.33;13.00;;;;;;;;5055871;28;46454;-74
2022/10/03 15:00:42;;;;;;;;;14.67;13.67;;;;;;;;5056455;28;45470;-74
2022/10/03 15:03:17;;;;;;;;;15.33;14.00;;;;;;;;5067000;28;45225;-74
2022/10/03 15:06:01;;;;;;;;;14.33;13.00;;;;;;;;5073049;27;45885;-74
2022/10/03 15:08:47;;;;;;;;;15.00;12.33;;;;;;;;5053441;28;45252;-75
2022/10/03 15:11:13;;;;;;;;;16.33;13.67;;;;;;;;5064008;27;45488;-74
2022/10/03 15:13:42;;;;;;;;;12.33;12.33;;;;;;;;5061929;28;45393;-74
2022/10/03 15:16:09;;;;;;;;;11.33;11.00;;;;;;;;5055810;28;45364;-74